sensor_id;sensor_type;location;lat;lon;timestamp;pressure;altitude;pressure_sealevel;temperature;humidity
81354;BME280;70810;52.038;8.524;2024-02-28T00:01:08;100624.25;;;-0.55;94.01
81354;BME280;70810;52.038;8.524;2024-02-28T00:03:35;100630.44;;;-0.47;94.42
81354;BME280;70810;52.038;8.524;2024-02-28T00:06:01;100629.56;;;-0.24;94.03
81354;BME280;70810;52.038;8.524;2024-02-28T00:08:28;100633.97;;;-0.29;93.89
81354;BME280;70810;52.038;8.524;2024-02-28T00:10:55;100619.00;;;-0.50;93.61
81354;BME280;70810;52.038;8.524;2024-02-28T00:13:22;100626.03;;;-0.42;93.64
81354;BME280;70810;52.038;8.524;2024-02-28T00:15:51;100630.47;;;-0.27;93.29
81354;BME280;70810;52.038;8.524;2024-02-28T00:18:18;100634.00;;;-0.17;94.11
81354;BME280;70810;52.038;8.524;2024-02-28T00:20:45;100589.13;;;-0.57;93.74
81354;BME280;70810;52.038;8.524;2024-02-28T00:23:11;100631.31;;;-0.51;93.75
81354;BME280;70810;52.038;8.524;2024-02-28T00:25:38;100621.59;;;-0.60;93.58
81354;BME280;70810;52.038;8.524;2024-02-28T00:28:05;100632.16;;;-0.58;93.70
81354;BME280;70810;52.038;8.524;2024-02-28T00:30:32;100636.53;;;-0.63;93.81
81354;BME280;70810;52.038;8.524;2024-02-28T00:33:01;100643.53;;;-0.70;94.14
81354;BME280;70810;52.038;8.524;2024-02-28T00:35:28;100648.81;;;-0.73;93.96
81354;BME280;70810;52.038;8.524;2024-02-28T00:37:57;100640.00;;;-0.77;93.88
81354;BME280;70810;52.038;8.524;2024-02-28T00:40:24;100635.59;;;-0.81;94.09
81354;BME280;70810;52.038;8.524;2024-02-28T00:42:51;100637.34;;;-0.84;94.29
81354;BME280;70810;52.038;8.524;2024-02-28T00:45:21;100630.31;;;-0.90;94.19
81354;BME280;70810;52.038;8.524;2024-02-28T00:47:48;100637.34;;;-0.86;93.98
81354;BME280;70810;52.038;8.524;2024-02-28T00:50:32;100631.19;;;-0.82;94.11
81354;BME280;70810;52.038;8.524;2024-02-28T00:52:59;100648.81;;;-0.64;94.55
81354;BME280;70810;52.038;8.524;2024-02-28T00:55:26;100640.91;;;-0.65;93.33
81354;BME280;70810;52.038;8.524;2024-02-28T00:57:53;100657.56;;;-0.74;93.04
81354;BME280;70810;52.038;8.524;2024-02-28T01:00:22;100654.00;;;-0.91;93.51
81354;BME280;70810;52.038;8.524;2024-02-28T01:02:49;100653.97;;;-0.98;93.82
81354;BME280;70810;52.038;8.524;2024-02-28T01:05:16;100645.19;;;-1.00;93.61
81354;BME280;70810;52.038;8.524;2024-02-28T01:07:44;100642.56;;;-0.98;93.53
81354;BME280;70810;52.038;8.524;2024-02-28T01:10:11;100642.56;;;-0.98;94.11
81354;BME280;70810;52.038;8.524;2024-02-28T01:12:38;100653.97;;;-0.98;94.05
81354;BME280;70810;52.038;8.524;2024-02-28T01:15:05;100658.44;;;-0.83;94.31
81354;BME280;70810;52.038;8.524;2024-02-28T01:17:32;100658.41;;;-0.84;93.60
81354;BME280;70810;52.038;8.524;2024-02-28T01:19:59;100657.50;;;-0.92;92.87
81354;BME280;70810;52.038;8.524;2024-02-28T01:22:26;100645.28;;;-0.80;92.82
81354;BME280;70810;52.038;8.524;2024-02-28T01:24:54;100642.56;;;-0.98;92.73
81354;BME280;70810;52.038;8.524;2024-02-28T01:27:21;100648.72;;;-0.98;93.57
81354;BME280;70810;52.038;8.524;2024-02-28T01:29:48;100634.63;;;-1.03;93.43
81354;BME280;70810;52.038;8.524;2024-02-28T01:32:14;100634.66;;;-1.01;93.50
81354;BME280;70810;52.038;8.524;2024-02-28T01:34:41;100624.13;;;-1.00;93.62
81354;BME280;70810;52.038;8.524;2024-02-28T01:37:08;100629.38;;;-0.95;93.84
81354;BME280;70810;52.038;8.524;2024-02-28T01:39:35;100630.25;;;-0.99;94.38
81354;BME280;70810;52.038;8.524;2024-02-28T01:42:05;100615.34;;;-1.02;93.86
81354;BME280;70810;52.038;8.524;2024-02-28T01:44:40;100620.53;;;-1.14;93.78
81354;BME280;70810;52.038;8.524;2024-02-28T01:47:07;100619.72;;;-1.08;93.91
81354;BME280;70810;52.038;8.524;2024-02-28T01:49:34;100622.41;;;-0.93;93.77
81354;BME280;70810;52.038;8.524;2024-02-28T01:52:01;100642.59;;;-0.86;94.00
81354;BME280;70810;52.038;8.524;2024-02-28T01:54:29;100644.34;;;-0.92;93.62
81354;BME280;70810;52.038;8.524;2024-02-28T01:56:56;100640.91;;;-0.74;93.12
81354;BME280;70810;52.038;8.524;2024-02-28T01:59:26;100638.19;;;-0.87;92.73
81354;BME280;70810;52.038;8.524;2024-02-28T02:01:54;100637.31;;;-0.97;92.87
81354;BME280;70810;52.038;8.524;2024-02-28T02:04:21;100630.31;;;-0.85;91.94
81354;BME280;70810;52.038;8.524;2024-02-28T02:06:48;100610.03;;;-1.08;92.18
81354;BME280;70810;52.038;8.524;2024-02-28T02:09:16;100616.19;;;-1.07;92.91
81354;BME280;70810;52.038;8.524;2024-02-28T02:11:43;100611.69;;;-1.33;93.04
81354;BME280;70810;52.038;8.524;2024-02-28T02:14:10;100612.63;;;-1.23;93.96
81354;BME280;70810;52.038;8.524;2024-02-28T02:16:38;100619.69;;;-1.11;94.63
81354;BME280;70810;52.038;8.524;2024-02-28T02:19:05;100616.16;;;-1.10;94.95
81354;BME280;70810;52.038;8.524;2024-02-28T02:21:40;100615.31;;;-1.06;94.45
81354;BME280;70810;52.038;8.524;2024-02-28T02:24:09;100618.03;;;-0.86;95.03
81354;BME280;70810;52.038;8.524;2024-02-28T02:26:36;100623.22;;;-1.00;94.73
81354;BME280;70810;52.038;8.524;2024-02-28T02:29:02;100623.22;;;-1.08;94.47
81354;BME280;70810;52.038;8.524;2024-02-28T02:31:29;100628.53;;;-0.94;94.15
81354;BME280;70810;52.038;8.524;2024-02-28T02:33:56;100620.59;;;-1.03;93.97
81354;BME280;70810;52.038;8.524;2024-02-28T02:36:22;100620.63;;;-0.94;93.38
81354;BME280;70810;52.038;8.524;2024-02-28T02:38:49;100608.28;;;-1.09;92.73
81354;BME280;70810;52.038;8.524;2024-02-28T02:41:18;100620.56;;;-1.08;92.93
81354;BME280;70810;52.038;8.524;2024-02-28T02:43:45;100613.56;;;-1.04;93.89
81354;BME280;70810;52.038;8.524;2024-02-28T02:46:11;100616.19;;;-1.07;94.70
81354;BME280;70810;52.038;8.524;2024-02-28T02:48:38;100620.63;;;-1.02;94.31
81354;BME280;70810;52.038;8.524;2024-02-28T02:51:07;100621.50;;;-0.95;94.88
81354;BME280;70810;52.038;8.524;2024-02-28T02:53:33;100629.41;;;-0.98;93.90
81354;BME280;70810;52.038;8.524;2024-02-28T02:56:03;100637.31;;;-0.90;94.31
81354;BME280;70810;52.038;8.524;2024-02-28T02:58:31;100649.69;;;-0.66;95.35
81354;BME280;70810;52.038;8.524;2024-02-28T03:00:58;100655.91;;;-0.43;96.18
81354;BME280;70810;52.038;8.524;2024-02-28T03:03:25;100648.94;;;0.10;97.24
81354;BME280;70810;52.038;8.524;2024-02-28T03:05:52;100644.53;;;0.08;96.60
81354;BME280;70810;52.038;8.524;2024-02-28T03:08:18;100653.31;;;0.07;96.71
81354;BME280;70810;52.038;8.524;2024-02-28T03:10:45;100636.63;;;-0.02;96.30
81354;BME280;70810;52.038;8.524;2024-02-28T03:13:12;100653.34;;;0.05;96.29
81354;BME280;70810;52.038;8.524;2024-02-28T03:15:41;100648.03;;;-0.07;96.17
81354;BME280;70810;52.038;8.524;2024-02-28T03:18:07;100640.13;;;-0.10;95.79
81354;BME280;70810;52.038;8.524;2024-02-28T03:20:34;100641.91;;;-0.20;96.46
81354;BME280;70810;52.038;8.524;2024-02-28T03:23:04;100633.09;;;-0.17;97.54
81354;BME280;70810;52.038;8.524;2024-02-28T03:25:31;100643.66;;;-0.02;98.99
81354;BME280;70810;52.038;8.524;2024-02-28T03:27:58;100639.28;;;-0.17;98.76
81354;BME280;70810;52.038;8.524;2024-02-28T03:30:26;100648.06;;;-0.15;99.43
81354;BME280;70810;52.038;8.524;2024-02-28T03:32:57;100643.63;;;-0.21;99.16
81354;BME280;70810;52.038;8.524;2024-02-28T03:35:23;100641.88;;;-0.31;98.81
81354;BME280;70810;52.038;8.524;2024-02-28T03:37:50;100651.53;;;-0.28;98.67
81354;BME280;70810;52.038;8.524;2024-02-28T03:40:23;100647.16;;;-0.37;98.31
81354;BME280;70810;52.038;8.524;2024-02-28T03:42:50;100652.41;;;-0.31;98.38
81354;BME280;70810;52.038;8.524;2024-02-28T03:45:17;100626.94;;;-0.46;98.05
81354;BME280;70810;52.038;8.524;2024-02-28T03:47:45;100646.25;;;-0.41;97.87
81354;BME280;70810;52.038;8.524;2024-02-28T03:50:13;100641.84;;;-0.46;97.86
81354;BME280;70810;52.038;8.524;2024-02-28T03:52:40;100655.03;;;-0.51;97.80
81354;BME280;70810;52.038;8.524;2024-02-28T03:55:07;100645.38;;;-0.47;97.94
81354;BME280;70810;52.038;8.524;2024-02-28T03:57:34;100646.28;;;-0.30;98.61
81354;BME280;70810;52.038;8.524;2024-02-28T04:00:01;100658.56;;;-0.32;98.56
81354;BME280;70810;52.038;8.524;2024-02-28T04:02:28;100654.19;;;-0.30;98.63
81354;BME280;70810;52.038;8.524;2024-02-28T04:04:54;100661.22;;;-0.30;98.68
81354;BME280;70810;52.038;8.524;2024-02-28T04:07:22;100665.56;;;-0.32;98.34
81354;BME280;70810;52.038;8.524;2024-02-28T04:09:49;100662.97;;;-0.37;97.81
81354;BME280;70810;52.038;8.524;2024-02-28T04:12:16;100667.31;;;-0.50;97.39
81354;BME280;70810;52.038;8.524;2024-02-28T04:14:43;100664.72;;;-0.30;95.37
81354;BME280;70810;52.038;8.524;2024-02-28T04:17:10;100672.56;;;-0.59;96.16
81354;BME280;70810;52.038;8.524;2024-02-28T04:19:36;100665.47;;;-0.76;95.08
81354;BME280;70810;52.038;8.524;2024-02-28T04:22:04;100672.44;;;-0.87;95.47
81354;BME280;70810;52.038;8.524;2024-02-28T04:24:32;100676.91;;;-0.67;94.18
81354;BME280;70810;52.038;8.524;2024-02-28T04:26:59;100671.53;;;-0.98;94.63
81354;BME280;70810;52.038;8.524;2024-02-28T04:29:28;100680.25;;;-1.05;94.94
81354;BME280;70810;52.038;8.524;2024-02-28T04:31:55;100681.16;;;-0.97;95.44
81354;BME280;70810;52.038;8.524;2024-02-28T04:34:22;100675.00;;;-1.01;96.24
81354;BME280;70810;52.038;8.524;2024-02-28T04:36:48;100682.06;;;-0.97;96.36
81354;BME280;70810;52.038;8.524;2024-02-28T04:39:15;100691.72;;;-0.94;96.60
81354;BME280;70810;52.038;8.524;2024-02-28T04:41:44;100693.50;;;-0.91;96.68
81354;BME280;70810;52.038;8.524;2024-02-28T04:44:12;100694.41;;;-0.83;96.04
81354;BME280;70810;52.038;8.524;2024-02-28T04:46:41;100678.63;;;-0.85;95.55
81354;BME280;70810;52.038;8.524;2024-02-28T04:49:08;100690.00;;;-0.89;94.54
81354;BME280;70810;52.038;8.524;2024-02-28T04:51:35;100697.78;;;-1.14;94.29
81354;BME280;70810;52.038;8.524;2024-02-28T04:54:02;100704.81;;;-1.11;94.20
81354;BME280;70810;52.038;8.524;2024-02-28T04:56:29;100710.94;;;-1.10;94.53
81354;BME280;70810;52.038;8.524;2024-02-28T04:59:00;100716.22;;;-1.07;94.75
81354;BME280;70810;52.038;8.524;2024-02-28T05:01:27;100713.66;;;-0.97;95.14
81354;BME280;70810;52.038;8.524;2024-02-28T05:03:53;100714.47;;;-1.05;94.68
81354;BME280;70810;52.038;8.524;2024-02-28T05:06:21;100716.28;;;-1.00;94.29
81354;BME280;70810;52.038;8.524;2024-02-28T05:08:48;100729.53;;;-0.78;94.89
81354;BME280;70810;52.038;8.524;2024-02-28T05:11:15;100725.19;;;-0.74;93.46
81354;BME280;70810;52.038;8.524;2024-02-28T05:13:42;100727.75;;;-0.90;93.69
81354;BME280;70810;52.038;8.524;2024-02-28T05:16:13;100726.00;;;-0.86;93.81
81354;BME280;70810;52.038;8.524;2024-02-28T05:18:40;100727.75;;;-0.91;93.83
81354;BME280;70810;52.038;8.524;2024-02-28T05:21:07;100738.25;;;-0.96;93.75
81354;BME280;70810;52.038;8.524;2024-02-28T05:23:33;100735.72;;;-0.78;93.77
81354;BME280;70810;52.038;8.524;2024-02-28T05:26:01;100751.50;;;-0.79;93.00
81354;BME280;70810;52.038;8.524;2024-02-28T05:28:30;100756.78;;;-0.76;93.35
81354;BME280;70810;52.038;8.524;2024-02-28T05:31:01;100763.00;;;-0.60;91.79
81354;BME280;70810;52.038;8.524;2024-02-28T05:33:31;100757.69;;;-0.66;93.14
81354;BME280;70810;52.038;8.524;2024-02-28T05:35:57;100762.16;;;-0.53;92.22
81354;BME280;70810;52.038;8.524;2024-02-28T05:38:25;100762.16;;;-0.51;93.26
81354;BME280;70810;52.038;8.524;2024-02-28T05:40:52;100755.25;;;-0.22;94.69
81354;BME280;70810;52.038;8.524;2024-02-28T05:43:19;100757.03;;;-0.10;95.71
81354;BME280;70810;52.038;8.524;2024-02-28T05:45:45;100753.50;;;-0.09;96.51
81354;BME280;70810;52.038;8.524;2024-02-28T05:48:12;100762.31;;;-0.08;96.79
81354;BME280;70810;52.038;8.524;2024-02-28T05:50:40;100763.22;;;-0.02;97.27
81354;BME280;70810;52.038;8.524;2024-02-28T05:53:07;100766.72;;;-0.12;96.86
81354;BME280;70810;52.038;8.524;2024-02-28T05:55:34;100764.91;;;-0.17;96.82
81354;BME280;70810;52.038;8.524;2024-02-28T05:58:01;100771.13;;;0.05;97.01
81354;BME280;70810;52.038;8.524;2024-02-28T06:00:30;100768.50;;;0.06;96.98
81354;BME280;70810;52.038;8.524;2024-02-28T06:02:57;100776.41;;;0.06;96.65
81354;BME280;70810;52.038;8.524;2024-02-28T06:05:24;100780.81;;;0.15;96.89
81354;BME280;70810;52.038;8.524;2024-02-28T06:07:52;100784.34;;;0.14;96.96
81354;BME280;70810;52.038;8.524;2024-02-28T06:10:22;100780.88;;;0.27;96.05
81354;BME280;70810;52.038;8.524;2024-02-28T06:12:49;100794.06;;;0.36;96.11
81354;BME280;70810;52.038;8.524;2024-02-28T06:15:16;100794.06;;;0.36;95.92
81354;BME280;70810;52.038;8.524;2024-02-28T06:17:44;100790.53;;;0.33;95.90
81354;BME280;70810;52.038;8.524;2024-02-28T06:20:14;100795.81;;;0.31;96.20
81354;BME280;70810;52.038;8.524;2024-02-28T06:22:56;100783.47;;;0.15;96.55
81354;BME280;70810;52.038;8.524;2024-02-28T06:25:23;100793.13;;;0.13;97.23
81354;BME280;70810;52.038;8.524;2024-02-28T06:27:50;100792.25;;;0.20;97.45
81354;BME280;70810;52.038;8.524;2024-02-28T06:30:20;100773.78;;;0.11;97.17
81354;BME280;70810;52.038;8.524;2024-02-28T06:32:47;100794.03;;;0.18;97.07
81354;BME280;70810;52.038;8.524;2024-02-28T06:35:14;100802.81;;;0.12;97.75
81354;BME280;70810;52.038;8.524;2024-02-28T06:37:41;100804.53;;;0.12;97.85
81354;BME280;70810;52.038;8.524;2024-02-28T06:40:11;100802.78;;;0.03;98.43
81354;BME280;70810;52.038;8.524;2024-02-28T06:42:49;100806.28;;;-0.01;99.15
81354;BME280;70810;52.038;8.524;2024-02-28T06:45:52;100810.66;;;-0.06;99.15
81354;BME280;70810;52.038;8.524;2024-02-28T06:48:35;100816.78;;;-0.10;99.74
81354;BME280;70810;52.038;8.524;2024-02-28T06:51:11;100811.56;;;0.07;99.82
81354;BME280;70810;52.038;8.524;2024-02-28T06:54:19;100823.97;;;0.42;98.97
81354;BME280;70810;52.038;8.524;2024-02-28T06:57:04;100830.13;;;0.58;97.33
81354;BME280;70810;52.038;8.524;2024-02-28T06:59:31;100830.16;;;0.65;96.48
81354;BME280;70810;52.038;8.524;2024-02-28T07:01:59;100828.38;;;0.81;95.98
81354;BME280;70810;52.038;8.524;2024-02-28T07:04:27;100803.75;;;0.59;95.15
81354;BME280;70810;52.038;8.524;2024-02-28T07:06:57;100839.81;;;0.69;95.58
81354;BME280;70810;52.038;8.524;2024-02-28T07:09:27;100825.78;;;0.61;95.34
81354;BME280;70810;52.038;8.524;2024-02-28T07:11:59;100812.53;;;0.49;95.98
81354;BME280;70810;52.038;8.524;2024-02-28T07:14:29;100835.41;;;0.48;95.87
81354;BME280;70810;52.038;8.524;2024-02-28T07:16:56;100845.09;;;0.57;96.58
81354;BME280;70810;52.038;8.524;2024-02-28T07:19:22;100846.91;;;0.78;95.93
81354;BME280;70810;52.038;8.524;2024-02-28T07:21:49;100846.88;;;0.86;95.50
81354;BME280;70810;52.038;8.524;2024-02-28T07:24:16;100842.47;;;0.86;94.82
81354;BME280;70810;52.038;8.524;2024-02-28T07:26:43;100843.34;;;0.90;94.33
81354;BME280;70810;52.038;8.524;2024-02-28T07:29:11;100846.88;;;1.07;93.80
81354;BME280;70810;52.038;8.524;2024-02-28T07:31:43;100853.94;;;1.16;93.27
81354;BME280;70810;52.038;8.524;2024-02-28T07:34:10;100852.16;;;1.23;92.67
81354;BME280;70810;52.038;8.524;2024-02-28T07:36:38;100844.25;;;1.09;92.15
81354;BME280;70810;52.038;8.524;2024-02-28T07:39:09;100860.06;;;1.41;92.01
81354;BME280;70810;52.038;8.524;2024-02-28T07:41:41;100865.34;;;1.41;91.84
81354;BME280;70810;52.038;8.524;2024-02-28T07:44:14;100862.66;;;1.52;91.99
81354;BME280;70810;52.038;8.524;2024-02-28T07:46:44;100868.00;;;1.41;91.00
81354;BME280;70810;52.038;8.524;2024-02-28T07:49:10;100862.66;;;1.49;91.95
81354;BME280;70810;52.038;8.524;2024-02-28T07:51:37;100867.97;;;1.49;91.47
81354;BME280;70810;52.038;8.524;2024-02-28T07:54:05;100870.63;;;1.44;91.29
81354;BME280;70810;52.038;8.524;2024-02-28T07:56:43;100862.72;;;1.24;92.27
81354;BME280;70810;52.038;8.524;2024-02-28T07:59:44;100861.84;;;1.22;92.58
81354;BME280;70810;52.038;8.524;2024-02-28T08:03:00;100869.78;;;1.22;93.47
81354;BME280;70810;52.038;8.524;2024-02-28T08:05:27;100874.19;;;1.33;92.19
81354;BME280;70810;52.038;8.524;2024-02-28T08:07:54;100877.69;;;1.15;92.60
81354;BME280;70810;52.038;8.524;2024-02-28T08:10:22;100860.06;;;1.15;92.93
81354;BME280;70810;52.038;8.524;2024-02-28T08:12:49;100863.63;;;1.09;93.72
81354;BME280;70810;52.038;8.524;2024-02-28T08:15:16;100872.41;;;1.30;93.36
81354;BME280;70810;52.038;8.524;2024-02-28T08:17:43;100860.97;;;1.31;93.42
81354;BME280;70810;52.038;8.524;2024-02-28T08:20:12;100875.91;;;1.38;93.62
81354;BME280;70810;52.038;8.524;2024-02-28T08:22:39;100883.81;;;1.46;92.72
81354;BME280;70810;52.038;8.524;2024-02-28T08:25:07;100882.06;;;1.42;93.12
81354;BME280;70810;52.038;8.524;2024-02-28T08:27:36;100869.75;;;1.28;92.85
81354;BME280;70810;52.038;8.524;2024-02-28T08:30:05;100891.75;;;1.47;93.17
81354;BME280;70810;52.038;8.524;2024-02-28T08:32:32;100892.66;;;1.42;92.56
81354;BME280;70810;52.038;8.524;2024-02-28T08:34:58;100896.16;;;1.56;92.29
81354;BME280;70810;52.038;8.524;2024-02-28T08:37:26;100895.22;;;1.68;92.52
81354;BME280;70810;52.038;8.524;2024-02-28T08:39:54;100899.59;;;1.88;91.75
81354;BME280;70810;52.038;8.524;2024-02-28T08:42:23;100898.72;;;1.90;91.39
81354;BME280;70810;52.038;8.524;2024-02-28T08:44:50;100896.94;;;1.95;91.07
81354;BME280;70810;52.038;8.524;2024-02-28T08:47:16;100901.38;;;1.84;91.16
81354;BME280;70810;52.038;8.524;2024-02-28T08:49:47;100907.53;;;1.83;90.94
81354;BME280;70810;52.038;8.524;2024-02-28T08:52:20;100904.91;;;1.81;91.54
81354;BME280;70810;52.038;8.524;2024-02-28T08:54:49;100901.38;;;1.84;91.21
81354;BME280;70810;52.038;8.524;2024-02-28T08:57:16;100906.63;;;1.96;90.67
81354;BME280;70810;52.038;8.524;2024-02-28T08:59:42;100910.13;;;2.03;91.06
81354;BME280;70810;52.038;8.524;2024-02-28T09:02:09;100918.13;;;1.94;91.11
81354;BME280;70810;52.038;8.524;2024-02-28T09:04:37;100912.78;;;2.08;90.95
81354;BME280;70810;52.038;8.524;2024-02-28T09:07:04;100904.84;;;2.08;90.64
81354;BME280;70810;52.038;8.524;2024-02-28T09:09:30;100910.13;;;1.97;91.06
81354;BME280;70810;52.038;8.524;2024-02-28T09:12:03;100904.78;;;2.18;90.95
81354;BME280;70810;52.038;8.524;2024-02-28T09:14:30;100900.31;;;2.30;90.16
81354;BME280;70810;52.038;8.524;2024-02-28T09:16:57;100908.34;;;2.03;89.92
81354;BME280;70810;52.038;8.524;2024-02-28T09:19:29;100915.38;;;2.15;91.43
81354;BME280;70810;52.038;8.524;2024-02-28T09:21:57;100910.03;;;2.29;90.63
81354;BME280;70810;52.038;8.524;2024-02-28T09:24:27;100917.94;;;2.32;90.33
81354;BME280;70810;52.038;8.524;2024-02-28T09:26:54;100917.06;;;2.39;90.22
81354;BME280;70810;52.038;8.524;2024-02-28T09:29:22;100927.53;;;2.58;89.38
81354;BME280;70810;52.038;8.524;2024-02-28T09:31:49;100923.97;;;2.62;89.30
81354;BME280;70810;52.038;8.524;2024-02-28T09:37:29;100925.00;;;2.32;90.36
81354;BME280;70810;52.038;8.524;2024-02-28T09:40:14;100925.84;;;2.45;90.25
81354;BME280;70810;52.038;8.524;2024-02-28T09:42:52;100918.63;;;2.71;89.61
81354;BME280;70810;52.038;8.524;2024-02-28T09:45:21;100915.94;;;2.80;89.42
81354;BME280;70810;52.038;8.524;2024-02-28T09:47:48;100921.25;;;2.73;89.40
81354;BME280;70810;52.038;8.524;2024-02-28T09:50:21;100921.28;;;2.70;89.19
81354;BME280;70810;52.038;8.524;2024-02-28T09:52:48;100922.16;;;2.73;89.88
81354;BME280;70810;52.038;8.524;2024-02-28T09:55:15;100923.88;;;2.79;89.29
81354;BME280;70810;52.038;8.524;2024-02-28T09:57:43;100930.97;;;2.77;90.19
81354;BME280;70810;52.038;8.524;2024-02-28T10:00:13;100935.34;;;2.78;89.56
81354;BME280;70810;52.038;8.524;2024-02-28T10:02:43;100930.22;;;2.50;90.23
81354;BME280;70810;52.038;8.524;2024-02-28T10:05:11;100942.53;;;2.57;90.80
81354;BME280;70810;52.038;8.524;2024-02-28T10:07:39;100938.19;;;2.44;91.03
81354;BME280;70810;52.038;8.524;2024-02-28T10:10:06;100935.53;;;2.42;91.39
81354;BME280;70810;52.038;8.524;2024-02-28T10:12:40;100937.31;;;2.43;92.04
81354;BME280;70810;52.038;8.524;2024-02-28T10:15:08;100935.53;;;2.50;91.96
81354;BME280;70810;52.038;8.524;2024-02-28T10:17:37;100931.88;;;2.70;91.16
81354;BME280;70810;52.038;8.524;2024-02-28T10:20:07;100932.75;;;2.73;90.62
81354;BME280;70810;52.038;8.524;2024-02-28T10:22:39;100929.28;;;2.64;90.84
81354;BME280;70810;52.038;8.524;2024-02-28T10:25:11;100933.56;;;2.85;90.90
81354;BME280;70810;52.038;8.524;2024-02-28T10:27:41;100929.97;;;2.92;90.18
81354;BME280;70810;52.038;8.524;2024-02-28T10:30:09;100930.72;;;3.11;89.26
81354;BME280;70810;52.038;8.524;2024-02-28T10:32:48;100940.31;;;3.26;88.76
81354;BME280;70810;52.038;8.524;2024-02-28T10:35:18;100894.47;;;3.17;88.65
81354;BME280;70810;52.038;8.524;2024-02-28T10:37:57;100942.91;;;3.36;88.03
81354;BME280;70810;52.038;8.524;2024-02-28T10:40:35;100945.41;;;3.53;87.79
81354;BME280;70810;52.038;8.524;2024-02-28T10:43:25;100949.00;;;3.46;88.07
81354;BME280;70810;52.038;8.524;2024-02-28T10:46:09;100938.44;;;3.39;87.69
81354;BME280;70810;52.038;8.524;2024-02-28T10:48:36;100945.53;;;3.41;88.35
81354;BME280;70810;52.038;8.524;2024-02-28T10:51:05;100941.97;;;3.39;87.90
81354;BME280;70810;52.038;8.524;2024-02-28T10:53:36;100953.13;;;3.77;86.87
81354;BME280;70810;52.038;8.524;2024-02-28T10:56:05;100961.97;;;3.79;86.02
81354;BME280;70810;52.038;8.524;2024-02-28T10:58:37;100945.97;;;3.86;85.49
81354;BME280;70810;52.038;8.524;2024-02-28T11:01:14;100953.94;;;3.85;85.86
81354;BME280;70810;52.038;8.524;2024-02-28T11:03:42;100951.09;;;4.00;86.35
81354;BME280;70810;52.038;8.524;2024-02-28T11:06:18;100951.25;;;3.89;86.68
81354;BME280;70810;52.038;8.524;2024-02-28T11:08:47;100944.25;;;3.81;86.46
81354;BME280;70810;52.038;8.524;2024-02-28T11:11:18;100949.78;;;3.56;87.89
81354;BME280;70810;52.038;8.524;2024-02-28T11:13:53;100955.25;;;3.36;88.31
81354;BME280;70810;52.038;8.524;2024-02-28T11:16:29;100958.72;;;3.46;88.40
81354;BME280;70810;52.038;8.524;2024-02-28T11:19:03;100952.28;;;3.73;87.93
81354;BME280;70810;52.038;8.524;2024-02-28T11:21:34;100955.69;;;3.87;86.47
81354;BME280;70810;52.038;8.524;2024-02-28T11:24:03;100954.09;;;3.66;87.84
81354;BME280;70810;52.038;8.524;2024-02-28T11:26:32;100949.47;;;3.87;87.19
81354;BME280;70810;52.038;8.524;2024-02-28T11:29:00;100945.94;;;3.88;87.45
81354;BME280;70810;52.038;8.524;2024-02-28T11:31:27;100949.69;;;3.68;87.44
81354;BME280;70810;52.038;8.524;2024-02-28T11:33:54;100941.41;;;4.01;87.82
81354;BME280;70810;52.038;8.524;2024-02-28T11:36:22;100945.91;;;3.91;87.12
81354;BME280;70810;52.038;8.524;2024-02-28T11:38:50;100951.09;;;4.00;87.09
81354;BME280;70810;52.038;8.524;2024-02-28T11:41:25;100947.53;;;4.06;86.71
81354;BME280;70810;52.038;8.524;2024-02-28T11:43:53;100949.53;;;3.85;87.22
81354;BME280;70810;52.038;8.524;2024-02-28T11:46:19;100939.75;;;3.87;87.86
81354;BME280;70810;52.038;8.524;2024-02-28T11:48:46;100944.91;;;4.03;87.79
81354;BME280;70810;52.038;8.524;2024-02-28T11:51:13;100937.75;;;4.09;86.89
81354;BME280;70810;52.038;8.524;2024-02-28T11:53:40;100944.75;;;4.17;86.35
81354;BME280;70810;52.038;8.524;2024-02-28T11:56:08;100932.84;;;4.48;86.26
81354;BME280;70810;52.038;8.524;2024-02-28T11:58:35;100934.66;;;4.46;86.23
81354;BME280;70810;52.038;8.524;2024-02-28T12:01:02;100916.84;;;4.53;83.69
81354;BME280;70810;52.038;8.524;2024-02-28T12:03:29;100925.34;;;4.77;84.14
81354;BME280;70810;52.038;8.524;2024-02-28T12:05:56;100921.00;;;4.73;84.15
81354;BME280;70810;52.038;8.524;2024-02-28T12:08:25;100928.91;;;4.77;84.25
81354;BME280;70810;52.038;8.524;2024-02-28T12:11:30;100924.84;;;4.50;85.26
81354;BME280;70810;52.038;8.524;2024-02-28T12:14:14;100933.03;;;4.33;85.87
81354;BME280;70810;52.038;8.524;2024-02-28T12:16:40;100926.91;;;4.29;86.43
81354;BME280;70810;52.038;8.524;2024-02-28T12:19:10;100919.38;;;4.61;85.41
81354;BME280;70810;52.038;8.524;2024-02-28T12:21:38;100925.50;;;4.67;84.78
81354;BME280;70810;52.038;8.524;2024-02-28T12:24:09;100920.72;;;4.91;84.04
81354;BME280;70810;52.038;8.524;2024-02-28T12:26:38;100913.69;;;4.87;83.66
81354;BME280;70810;52.038;8.524;2024-02-28T12:29:08;100918.16;;;4.85;82.91
81354;BME280;70810;52.038;8.524;2024-02-28T12:31:38;100914.56;;;4.89;84.02
81354;BME280;70810;52.038;8.524;2024-02-28T12:34:05;100915.91;;;5.16;83.25
81354;BME280;70810;52.038;8.524;2024-02-28T12:36:32;100908.69;;;4.65;83.45
81354;BME280;70810;52.038;8.524;2024-02-28T12:39:02;100902.78;;;4.46;84.56
81354;BME280;70810;52.038;8.524;2024-02-28T12:41:31;100886.31;;;4.17;85.26
81354;BME280;70810;52.038;8.524;2024-02-28T12:44:02;100896.72;;;4.34;84.92
81354;BME280;70810;52.038;8.524;2024-02-28T12:46:31;100891.22;;;4.47;85.06
81354;BME280;70810;52.038;8.524;2024-02-28T12:49:03;100897.06;;;4.74;83.15
81354;BME280;70810;52.038;8.524;2024-02-28T12:51:37;100892.97;;;4.50;83.82
81354;BME280;70810;52.038;8.524;2024-02-28T12:54:09;100891.28;;;4.43;84.38
81354;BME280;70810;52.038;8.524;2024-02-28T12:56:38;100879.16;;;4.25;84.39
81354;BME280;70810;52.038;8.524;2024-02-28T12:59:09;100876.69;;;4.73;82.65
81354;BME280;70810;52.038;8.524;2024-02-28T13:01:36;100880.53;;;5.11;81.97
81354;BME280;70810;52.038;8.524;2024-02-28T13:04:03;100880.84;;;5.44;80.96
81354;BME280;70810;52.038;8.524;2024-02-28T13:06:31;100876.59;;;5.34;80.64
81354;BME280;70810;52.038;8.524;2024-02-28T13:08:59;100872.16;;;5.33;80.61